sensor_id;sensor_type;location;lat;lon;timestamp;temperature;humidity
29453;DHT22;16424;50.956;5.320;2023-06-10T00:01:32;23.00;96.40
29453;DHT22;16424;50.956;5.320;2023-06-10T00:04:03;22.90;96.70
29453;DHT22;16424;50.956;5.320;2023-06-10T00:06:29;22.90;96.90
29453;DHT22;16424;50.956;5.320;2023-06-10T00:09:05;22.90;97.00
29453;DHT22;16424;50.956;5.320;2023-06-10T00:11:32;22.80;97.30
29453;DHT22;16424;50.956;5.320;2023-06-10T00:13:59;22.80;97.30
29453;DHT22;16424;50.956;5.320;2023-06-10T00:16:24;22.70;97.60
29453;DHT22;16424;50.956;5.320;2023-06-10T00:18:51;22.60;97.80
29453;DHT22;16424;50.956;5.320;2023-06-10T00:21:17;22.70;97.70
29453;DHT22;16424;50.956;5.320;2023-06-10T00:23:45;22.60;98.00
29453;DHT22;16424;50.956;5.320;2023-06-10T00:26:11;22.60;98.10
29453;DHT22;16424;50.956;5.320;2023-06-10T00:28:36;22.60;98.20
29453;DHT22;16424;50.956;5.320;2023-06-10T00:31:02;22.70;98.10
29453;DHT22;16424;50.956;5.320;2023-06-10T00:33:29;22.70;98.30
29453;DHT22;16424;50.956;5.320;2023-06-10T00:35:55;22.70;98.30
29453;DHT22;16424;50.956;5.320;2023-06-10T00:38:22;22.60;98.60
29453;DHT22;16424;50.956;5.320;2023-06-10T00:40:48;22.50;98.90
29453;DHT22;16424;50.956;5.320;2023-06-10T00:43:14;22.50;99.10
29453;DHT22;16424;50.956;5.320;2023-06-10T00:45:41;22.40;99.40
29453;DHT22;16424;50.956;5.320;2023-06-10T00:48:07;22.30;99.50
29453;DHT22;16424;50.956;5.320;2023-06-10T00:50:33;22.30;99.70
29453;DHT22;16424;50.956;5.320;2023-06-10T00:53:00;22.20;99.90
29453;DHT22;16424;50.956;5.320;2023-06-10T00:55:26;22.20;99.90
29453;DHT22;16424;50.956;5.320;2023-06-10T00:57:52;22.10;99.90
29453;DHT22;16424;50.956;5.320;2023-06-10T01:00:19;22.10;99.90
29453;DHT22;16424;50.956;5.320;2023-06-10T01:02:44;22.00;99.90
29453;DHT22;16424;50.956;5.320;2023-06-10T01:05:10;21.90;99.90
29453;DHT22;16424;50.956;5.320;2023-06-10T01:13:25;22.00;99.90
29453;DHT22;16424;50.956;5.320;2023-06-10T01:15:34;22.00;99.90
29453;DHT22;16424;50.956;5.320;2023-06-10T01:18:04;22.00;99.90
29453;DHT22;16424;50.956;5.320;2023-06-10T01:20:34;22.00;99.90
29453;DHT22;16424;50.956;5.320;2023-06-10T01:26:04;21.90;99.90
29453;DHT22;16424;50.956;5.320;2023-06-10T01:28:49;21.80;99.90
29453;DHT22;16424;50.956;5.320;2023-06-10T01:33:52;21.90;99.90
29453;DHT22;16424;50.956;5.320;2023-06-10T01:36:19;21.90;99.90
29453;DHT22;16424;50.956;5.320;2023-06-10T01:41:17;21.70;99.90
29453;DHT22;16424;50.956;5.320;2023-06-10T01:43:43;21.70;99.90
29453;DHT22;16424;50.956;5.320;2023-06-10T01:46:10;21.70;99.90
29453;DHT22;16424;50.956;5.320;2023-06-10T01:48:37;21.70;99.90
29453;DHT22;16424;50.956;5.320;2023-06-10T01:51:05;21.70;99.90
29453;DHT22;16424;50.956;5.320;2023-06-10T01:53:30;21.60;99.90
29453;DHT22;16424;50.956;5.320;2023-06-10T01:55:56;21.70;99.90
29453;DHT22;16424;50.956;5.320;2023-06-10T01:58:22;21.70;99.90
29453;DHT22;16424;50.956;5.320;2023-06-10T02:00:48;21.70;99.90
29453;DHT22;16424;50.956;5.320;2023-06-10T02:03:14;21.80;99.90
29453;DHT22;16424;50.956;5.320;2023-06-10T02:05:40;21.60;99.90
29453;DHT22;16424;50.956;5.320;2023-06-10T02:08:06;21.60;99.90
29453;DHT22;16424;50.956;5.320;2023-06-10T02:10:32;21.50;99.90
29453;DHT22;16424;50.956;5.320;2023-06-10T02:12:58;21.60;99.90
29453;DHT22;16424;50.956;5.320;2023-06-10T02:18:09;21.60;99.90
29453;DHT22;16424;50.956;5.320;2023-06-10T02:23:21;21.60;99.90
29453;DHT22;16424;50.956;5.320;2023-06-10T02:25:49;21.50;99.90
29453;DHT22;16424;50.956;5.320;2023-06-10T02:28:15;21.50;99.90
29453;DHT22;16424;50.956;5.320;2023-06-10T02:30:41;21.40;99.90
29453;DHT22;16424;50.956;5.320;2023-06-10T02:33:07;21.40;99.90
29453;DHT22;16424;50.956;5.320;2023-06-10T02:35:36;21.30;99.90
29453;DHT22;16424;50.956;5.320;2023-06-10T02:38:02;21.20;99.90
29453;DHT22;16424;50.956;5.320;2023-06-10T02:40:28;21.30;99.90
29453;DHT22;16424;50.956;5.320;2023-06-10T02:42:54;21.30;99.90
29453;DHT22;16424;50.956;5.320;2023-06-10T02:45:22;21.10;99.90
29453;DHT22;16424;50.956;5.320;2023-06-10T02:47:47;21.10;99.90
29453;DHT22;16424;50.956;5.320;2023-06-10T02:50:13;21.00;99.90
29453;DHT22;16424;50.956;5.320;2023-06-10T02:52:39;20.90;99.90
29453;DHT22;16424;50.956;5.320;2023-06-10T02:55:06;21.10;99.90
29453;DHT22;16424;50.956;5.320;2023-06-10T02:57:32;21.00;99.90
29453;DHT22;16424;50.956;5.320;2023-06-10T02:59:58;21.20;99.90
29453;DHT22;16424;50.956;5.320;2023-06-10T03:02:24;21.20;99.90
29453;DHT22;16424;50.956;5.320;2023-06-10T03:07:38;20.90;99.90
29453;DHT22;16424;50.956;5.320;2023-06-10T03:12:33;20.80;99.90
29453;DHT22;16424;50.956;5.320;2023-06-10T03:17:46;21.00;99.90
29453;DHT22;16424;50.956;5.320;2023-06-10T03:20:12;20.90;99.90
29453;DHT22;16424;50.956;5.320;2023-06-10T03:22:37;20.90;99.90
29453;DHT22;16424;50.956;5.320;2023-06-10T03:25:04;21.00;99.90
29453;DHT22;16424;50.956;5.320;2023-06-10T03:27:32;21.00;99.90
29453;DHT22;16424;50.956;5.320;2023-06-10T03:29:58;20.90;99.90
29453;DHT22;16424;50.956;5.320;2023-06-10T03:32:24;20.80;99.90
29453;DHT22;16424;50.956;5.320;2023-06-10T03:34:51;20.70;99.90
29453;DHT22;16424;50.956;5.320;2023-06-10T03:37:16;20.60;99.90
29453;DHT22;16424;50.956;5.320;2023-06-10T03:39:43;20.50;99.90
29453;DHT22;16424;50.956;5.320;2023-06-10T03:42:09;20.40;99.90
29453;DHT22;16424;50.956;5.320;2023-06-10T03:44:35;20.50;99.90
29453;DHT22;16424;50.956;5.320;2023-06-10T03:47:01;20.60;99.90
29453;DHT22;16424;50.956;5.320;2023-06-10T03:49:29;20.70;99.90
29453;DHT22;16424;50.956;5.320;2023-06-10T03:51:54;20.60;99.90
29453;DHT22;16424;50.956;5.320;2023-06-10T03:54:22;20.50;99.90
29453;DHT22;16424;50.956;5.320;2023-06-10T03:56:48;20.70;99.90
29453;DHT22;16424;50.956;5.320;2023-06-10T03:59:13;20.70;99.90
29453;DHT22;16424;50.956;5.320;2023-06-10T04:01:40;20.60;99.90
29453;DHT22;16424;50.956;5.320;2023-06-10T04:04:06;20.50;99.90
29453;DHT22;16424;50.956;5.320;2023-06-10T04:06:34;20.50;99.90
29453;DHT22;16424;50.956;5.320;2023-06-10T04:09:00;20.50;99.90
29453;DHT22;16424;50.956;5.320;2023-06-10T04:11:26;20.60;99.90
29453;DHT22;16424;50.956;5.320;2023-06-10T04:13:52;20.50;99.90
29453;DHT22;16424;50.956;5.320;2023-06-10T04:16:18;20.50;99.90
29453;DHT22;16424;50.956;5.320;2023-06-10T04:18:43;20.50;99.90
29453;DHT22;16424;50.956;5.320;2023-06-10T04:21:11;20.50;99.90
29453;DHT22;16424;50.956;5.320;2023-06-10T04:23:37;20.50;99.90
29453;DHT22;16424;50.956;5.320;2023-06-10T04:26:04;20.50;99.90
29453;DHT22;16424;50.956;5.320;2023-06-10T04:28:31;20.60;99.90
29453;DHT22;16424;50.956;5.320;2023-06-10T04:30:59;20.60;99.90
29453;DHT22;16424;50.956;5.320;2023-06-10T04:33:24;20.60;99.90
29453;DHT22;16424;50.956;5.320;2023-06-10T04:35:50;20.50;99.90
29453;DHT22;16424;50.956;5.320;2023-06-10T04:38:16;20.70;99.90
29453;DHT22;16424;50.956;5.320;2023-06-10T04:40:42;20.70;99.90
29453;DHT22;16424;50.956;5.320;2023-06-10T04:43:08;20.80;99.90
29453;DHT22;16424;50.956;5.320;2023-06-10T04:45:33;20.80;99.90
29453;DHT22;16424;50.956;5.320;2023-06-10T04:47:59;20.60;99.90
29453;DHT22;16424;50.956;5.320;2023-06-10T04:50:25;20.70;99.90
29453;DHT22;16424;50.956;5.320;2023-06-10T04:52:51;20.80;99.90
29453;DHT22;16424;50.956;5.320;2023-06-10T04:55:17;20.80;99.90
29453;DHT22;16424;50.956;5.320;2023-06-10T04:57:43;21.00;99.90
29453;DHT22;16424;50.956;5.320;2023-06-10T05:00:09;20.90;99.90
29453;DHT22;16424;50.956;5.320;2023-06-10T05:05:21;21.10;99.90
29453;DHT22;16424;50.956;5.320;2023-06-10T05:07:47;21.30;99.90
29453;DHT22;16424;50.956;5.320;2023-06-10T05:10:12;21.40;99.90
29453;DHT22;16424;50.956;5.320;2023-06-10T05:12:38;21.50;99.90
29453;DHT22;16424;50.956;5.320;2023-06-10T05:15:05;21.60;99.90
29453;DHT22;16424;50.956;5.320;2023-06-10T05:17:33;21.50;99.90
29453;DHT22;16424;50.956;5.320;2023-06-10T05:20:00;21.50;99.90
29453;DHT22;16424;50.956;5.320;2023-06-10T05:22:27;21.80;99.90
29453;DHT22;16424;50.956;5.320;2023-06-10T05:24:53;21.80;99.90
29453;DHT22;16424;50.956;5.320;2023-06-10T05:27:21;21.80;99.90
29453;DHT22;16424;50.956;5.320;2023-06-10T05:29:47;22.00;99.90
29453;DHT22;16424;50.956;5.320;2023-06-10T05:35:17;22.40;99.90
29453;DHT22;16424;50.956;5.320;2023-06-10T05:37:42;22.40;99.90
29453;DHT22;16424;50.956;5.320;2023-06-10T05:42:54;23.70;99.90
29453;DHT22;16424;50.956;5.320;2023-06-10T05:45:21;24.70;99.90
29453;DHT22;16424;50.956;5.320;2023-06-10T05:47:47;25.60;99.90
29453;DHT22;16424;50.956;5.320;2023-06-10T05:53:03;27.00;99.90
29453;DHT22;16424;50.956;5.320;2023-06-10T05:55:29;27.60;99.90
29453;DHT22;16424;50.956;5.320;2023-06-10T05:57:58;27.60;99.50
29453;DHT22;16424;50.956;5.320;2023-06-10T06:00:26;28.00;98.90
29453;DHT22;16424;50.956;5.320;2023-06-10T06:02:52;28.50;97.70
29453;DHT22;16424;50.956;5.320;2023-06-10T06:05:21;28.60;97.10
29453;DHT22;16424;50.956;5.320;2023-06-10T06:07:46;28.50;97.80
29453;DHT22;16424;50.956;5.320;2023-06-10T06:10:12;29.40;96.60
29453;DHT22;16424;50.956;5.320;2023-06-10T06:12:38;29.60;95.90
29453;DHT22;16424;50.956;5.320;2023-06-10T06:15:04;29.30;95.80
29453;DHT22;16424;50.956;5.320;2023-06-10T06:17:30;29.60;95.70
29453;DHT22;16424;50.956;5.320;2023-06-10T06:19:55;29.80;95.00
29453;DHT22;16424;50.956;5.320;2023-06-10T06:22:21;29.70;95.00
29453;DHT22;16424;50.956;5.320;2023-06-10T06:24:47;29.90;94.60
29453;DHT22;16424;50.956;5.320;2023-06-10T06:27:14;29.90;94.30
29453;DHT22;16424;50.956;5.320;2023-06-10T06:29:40;30.00;94.00
29453;DHT22;16424;50.956;5.320;2023-06-10T06:32:06;30.40;93.40
29453;DHT22;16424;50.956;5.320;2023-06-10T06:34:34;31.00;93.10
29453;DHT22;16424;50.956;5.320;2023-06-10T06:37:00;31.30;92.30
29453;DHT22;16424;50.956;5.320;2023-06-10T06:39:25;30.90;92.30
29453;DHT22;16424;50.956;5.320;2023-06-10T06:41:51;31.00;92.10
29453;DHT22;16424;50.956;5.320;2023-06-10T06:44:17;31.20;91.70
29453;DHT22;16424;50.956;5.320;2023-06-10T06:46:43;31.90;91.30
29453;DHT22;16424;50.956;5.320;2023-06-10T06:49:09;32.30;90.20
29453;DHT22;16424;50.956;5.320;2023-06-10T06:51:34;31.60;90.40
29453;DHT22;16424;50.956;5.320;2023-06-10T06:54:00;32.40;90.40
29453;DHT22;16424;50.956;5.320;2023-06-10T06:56:26;32.90;90.00
29453;DHT22;16424;50.956;5.320;2023-06-10T06:58:54;33.50;88.60
29453;DHT22;16424;50.956;5.320;2023-06-10T07:01:20;33.20;88.60
29453;DHT22;16424;50.956;5.320;2023-06-10T07:06:30;32.30;88.20
29453;DHT22;16424;50.956;5.320;2023-06-10T07:08:58;31.90;88.60
29453;DHT22;16424;50.956;5.320;2023-06-10T07:11:23;32.10;88.90
29453;DHT22;16424;50.956;5.320;2023-06-10T07:16:36;31.50;89.50
29453;DHT22;16424;50.956;5.320;2023-06-10T07:19:04;31.00;89.50
29453;DHT22;16424;50.956;5.320;2023-06-10T07:21:30;31.70;88.80
29453;DHT22;16424;50.956;5.320;2023-06-10T07:23:59;32.40;87.90
29453;DHT22;16424;50.956;5.320;2023-06-10T07:26:25;33.00;86.30
29453;DHT22;16424;50.956;5.320;2023-06-10T07:28:51;32.40;87.00
29453;DHT22;16424;50.956;5.320;2023-06-10T07:31:17;32.90;86.10
29453;DHT22;16424;50.956;5.320;2023-06-10T07:33:43;33.40;86.30
29453;DHT22;16424;50.956;5.320;2023-06-10T07:36:08;33.20;84.90
29453;DHT22;16424;50.956;5.320;2023-06-10T07:38:36;33.30;84.90
29453;DHT22;16424;50.956;5.320;2023-06-10T07:41:02;33.30;85.40
29453;DHT22;16424;50.956;5.320;2023-06-10T07:43:28;32.70;84.40
29453;DHT22;16424;50.956;5.320;2023-06-10T07:45:53;32.20;86.40
29453;DHT22;16424;50.956;5.320;2023-06-10T07:51:23;32.80;85.00
29453;DHT22;16424;50.956;5.320;2023-06-10T07:53:49;32.90;85.30
29453;DHT22;16424;50.956;5.320;2023-06-10T07:56:17;33.70;85.20
29453;DHT22;16424;50.956;5.320;2023-06-10T07:58:42;34.50;82.00
29453;DHT22;16424;50.956;5.320;2023-06-10T08:01:09;34.50;83.20
29453;DHT22;16424;50.956;5.320;2023-06-10T08:03:35;35.60;83.80
29453;DHT22;16424;50.956;5.320;2023-06-10T08:06:01;36.10;82.10
29453;DHT22;16424;50.956;5.320;2023-06-10T08:08:27;36.90;79.90
29453;DHT22;16424;50.956;5.320;2023-06-10T08:10:53;36.00;78.80
29453;DHT22;16424;50.956;5.320;2023-06-10T08:13:18;35.50;80.10
29453;DHT22;16424;50.956;5.320;2023-06-10T08:15:44;35.30;79.60
29453;DHT22;16424;50.956;5.320;2023-06-10T08:20:54;35.00;79.60
29453;DHT22;16424;50.956;5.320;2023-06-10T08:23:20;34.90;80.20
29453;DHT22;16424;50.956;5.320;2023-06-10T08:25:46;34.50;80.00
29453;DHT22;16424;50.956;5.320;2023-06-10T08:28:13;34.40;80.40
29453;DHT22;16424;50.956;5.320;2023-06-10T08:30:38;34.40;80.20
29453;DHT22;16424;50.956;5.320;2023-06-10T08:35:48;34.30;81.00
29453;DHT22;16424;50.956;5.320;2023-06-10T08:38:14;33.30;80.80
29453;DHT22;16424;50.956;5.320;2023-06-10T08:40:41;32.50;81.60
29453;DHT22;16424;50.956;5.320;2023-06-10T08:43:09;32.70;82.50
29453;DHT22;16424;50.956;5.320;2023-06-10T08:45:36;33.30;80.30
29453;DHT22;16424;50.956;5.320;2023-06-10T08:48:05;33.70;80.20
29453;DHT22;16424;50.956;5.320;2023-06-10T08:50:36;33.80;81.00
29453;DHT22;16424;50.956;5.320;2023-06-10T08:53:04;34.40;80.00
29453;DHT22;16424;50.956;5.320;2023-06-10T08:55:32;35.70;79.00
29453;DHT22;16424;50.956;5.320;2023-06-10T08:58:01;35.90;77.50
29453;DHT22;16424;50.956;5.320;2023-06-10T09:00:27;35.10;78.60
29453;DHT22;16424;50.956;5.320;2023-06-10T09:02:53;35.20;77.80
29453;DHT22;16424;50.956;5.320;2023-06-10T09:05:19;34.50;77.00
29453;DHT22;16424;50.956;5.320;2023-06-10T09:07:45;34.30;77.70
29453;DHT22;16424;50.956;5.320;2023-06-10T09:10:11;34.50;77.40
29453;DHT22;16424;50.956;5.320;2023-06-10T09:12:37;34.30;78.30
29453;DHT22;16424;50.956;5.320;2023-06-10T09:15:03;34.50;76.90
29453;DHT22;16424;50.956;5.320;2023-06-10T09:17:30;34.60;77.80
29453;DHT22;16424;50.956;5.320;2023-06-10T09:19:56;34.60;76.10
29453;DHT22;16424;50.956;5.320;2023-06-10T09:22:22;35.00;78.20
29453;DHT22;16424;50.956;5.320;2023-06-10T09:24:48;35.30;76.40
29453;DHT22;16424;50.956;5.320;2023-06-10T09:27:14;34.60;76.00
29453;DHT22;16424;50.956;5.320;2023-06-10T09:29:55;34.10;76.50
29453;DHT22;16424;50.956;5.320;2023-06-10T09:32:23;33.60;78.50
29453;DHT22;16424;50.956;5.320;2023-06-10T09:34:49;33.30;78.20
29453;DHT22;16424;50.956;5.320;2023-06-10T09:37:19;32.80;78.40
29453;DHT22;16424;50.956;5.320;2023-06-10T09:39:46;32.30;79.30
29453;DHT22;16424;50.956;5.320;2023-06-10T09:42:25;32.30;79.90
29453;DHT22;16424;50.956;5.320;2023-06-10T09:44:51;32.10;79.60
29453;DHT22;16424;50.956;5.320;2023-06-10T09:47:22;31.70;77.90
29453;DHT22;16424;50.956;5.320;2023-06-10T09:49:48;31.40;78.10
29453;DHT22;16424;50.956;5.320;2023-06-10T09:52:14;31.30;79.00
29453;DHT22;16424;50.956;5.320;2023-06-10T09:54:46;31.30;81.40
29453;DHT22;16424;50.956;5.320;2023-06-10T09:57:12;31.30;81.30
29453;DHT22;16424;50.956;5.320;2023-06-10T09:59:37;31.20;77.20
29453;DHT22;16424;50.956;5.320;2023-06-10T10:02:05;31.00;76.20
29453;DHT22;16424;50.956;5.320;2023-06-10T10:04:31;30.70;76.40
29453;DHT22;16424;50.956;5.320;2023-06-10T10:06:56;30.50;76.30
29453;DHT22;16424;50.956;5.320;2023-06-10T10:12:12;30.60;76.10
29453;DHT22;16424;50.956;5.320;2023-06-10T10:14:39;30.50;77.40
29453;DHT22;16424;50.956;5.320;2023-06-10T10:17:10;30.40;78.30
29453;DHT22;16424;50.956;5.320;2023-06-10T10:19:47;30.60;78.00
29453;DHT22;16424;50.956;5.320;2023-06-10T10:22:26;30.80;78.50
29453;DHT22;16424;50.956;5.320;2023-06-10T10:24:57;30.80;77.70
29453;DHT22;16424;50.956;5.320;2023-06-10T10:27:28;30.70;76.70
29453;DHT22;16424;50.956;5.320;2023-06-10T10:29:57;30.90;75.70
29453;DHT22;16424;50.956;5.320;2023-06-10T10:32:35;30.90;76.00
29453;DHT22;16424;50.956;5.320;2023-06-10T10:35:12;30.90;75.90
29453;DHT22;16424;50.956;5.320;2023-06-10T10:37:40;30.70;75.50
29453;DHT22;16424;50.956;5.320;2023-06-10T10:42:51;30.60;75.00
29453;DHT22;16424;50.956;5.320;2023-06-10T10:45:17;30.60;74.10
29453;DHT22;16424;50.956;5.320;2023-06-10T10:47:44;30.80;75.20
29453;DHT22;16424;50.956;5.320;2023-06-10T10:50:16;31.10;75.40
29453;DHT22;16424;50.956;5.320;2023-06-10T10:52:53;31.10;75.00
29453;DHT22;16424;50.956;5.320;2023-06-10T10:55:20;31.00;75.10
29453;DHT22;16424;50.956;5.320;2023-06-10T10:57:53;31.00;75.60
29453;DHT22;16424;50.956;5.320;2023-06-10T11:00:25;31.00;74.70
29453;DHT22;16424;50.956;5.320;2023-06-10T11:02:52;30.90;75.30
29453;DHT22;16424;50.956;5.320;2023-06-10T11:08:10;31.30;75.60
29453;DHT22;16424;50.956;5.320;2023-06-10T11:13:09;31.10;76.00
29453;DHT22;16424;50.956;5.320;2023-06-10T11:15:38;30.90;75.40
29453;DHT22;16424;50.956;5.320;2023-06-10T11:18:14;31.00;74.70
29453;DHT22;16424;50.956;5.320;2023-06-10T11:20:45;31.30;72.10
29453;DHT22;16424;50.956;5.320;2023-06-10T11:26:14;31.40;73.80
29453;DHT22;16424;50.956;5.320;2023-06-10T11:28:41;31.50;73.60
29453;DHT22;16424;50.956;5.320;2023-06-10T11:31:08;31.40;73.50
29453;DHT22;16424;50.956;5.320;2023-06-10T11:33:34;31.20;72.70
29453;DHT22;16424;50.956;5.320;2023-06-10T11:36:06;31.20;74.10
29453;DHT22;16424;50.956;5.320;2023-06-10T11:38:32;31.20;73.50
29453;DHT22;16424;50.956;5.320;2023-06-10T11:40:58;31.20;69.80
29453;DHT22;16424;50.956;5.320;2023-06-10T11:43:25;31.10;71.00
29453;DHT22;16424;50.956;5.320;2023-06-10T11:45:55;31.30;69.50
29453;DHT22;16424;50.956;5.320;2023-06-10T11:48:21;31.50;70.50
29453;DHT22;16424;50.956;5.320;2023-06-10T11:50:47;31.40;70.60
29453;DHT22;16424;50.956;5.320;2023-06-10T11:53:14;31.60;70.60
29453;DHT22;16424;50.956;5.320;2023-06-10T11:55:41;31.60;70.20
29453;DHT22;16424;50.956;5.320;2023-06-10T11:58:14;31.60;70.10
29453;DHT22;16424;50.956;5.320;2023-06-10T12:00:43;31.80;69.90
29453;DHT22;16424;50.956;5.320;2023-06-10T12:03:09;31.80;69.00
29453;DHT22;16424;50.956;5.320;2023-06-10T12:05:35;31.70;70.20
29453;DHT22;16424;50.956;5.320;2023-06-10T12:08:08;31.90;70.20
29453;DHT22;16424;50.956;5.320;2023-06-10T12:10:38;31.80;68.20
29453;DHT22;16424;50.956;5.320;2023-06-10T12:13:04;31.60;69.30
29453;DHT22;16424;50.956;5.320;2023-06-10T12:15:30;31.70;70.20
29453;DHT22;16424;50.956;5.320;2023-06-10T12:17:55;31.80;70.00
29453;DHT22;16424;50.956;5.320;2023-06-10T12:20:28;31.90;68.90
29453;DHT22;16424;50.956;5.320;2023-06-10T12:23:08;31.80;67.00
29453;DHT22;16424;50.956;5.320;2023-06-10T12:25:35;31.80;67.40
29453;DHT22;16424;50.956;5.320;2023-06-10T12:28:05;31.80;68.10
29453;DHT22;16424;50.956;5.320;2023-06-10T12:30:32;31.90;68.30
29453;DHT22;16424;50.956;5.320;2023-06-10T12:32:58;31.90;67.70
29453;DHT22;16424;50.956;5.320;2023-06-10T12:35:25;31.90;67.50
29453;DHT22;16424;50.956;5.320;2023-06-10T12:38:09;31.80;66.30
29453;DHT22;16424;50.956;5.320;2023-06-10T12:40:37;31.60;67.80
29453;DHT22;16424;50.956;5.320;2023-06-10T12:43:06;31.50;66.80
29453;DHT22;16424;50.956;5.320;2023-06-10T12:45:36;31.60;67.90
29453;DHT22;16424;50.956;5.320;2023-06-10T12:48:06;31.60;68.70
29453;DHT22;16424;50.956;5.320;2023-06-10T12:50:35;31.80;66.90
29453;DHT22;16424;50.956;5.320;2023-06-10T12:53:00;31.60;66.20
29453;DHT22;16424;50.956;5.320;2023-06-10T12:55:27;31.60;66.00
29453;DHT22;16424;50.956;5.320;2023-06-10T12:57:53;31.90;66.60
29453;DHT22;16424;50.956;5.320;2023-06-10T13:00:20;31.70;67.10
29453;DHT22;16424;50.956;5.320;2023-06-10T13:02:48;31.80;65.90
29453;DHT22;16424;50.956;5.320;2023-06-10T13:05:13;32.10;65.60
29453;DHT22;16424;50.956;5.320;2023-06-10T13:07:39;32.00;65.40
29453;DHT22;16424;50.956;5.320;2023-06-10T13:10:07;31.80;64.20
29453;DHT22;16424;50.956;5.320;2023-06-10T13:12:33;31.90;64.90
29453;DHT22;16424;50.956;5.320;2023-06-10T13:14:59;31.90;64.10
29453;DHT22;16424;50.956;5.320;2023-06-10T13:17:26;31.90;64.80
29453;DHT22;16424;50.956;5.320;2023-06-10T13:19:57;32.10;64.80
29453;DHT22;16424;50.956;5.320;2023-06-10T13:22:23;32.00;65.70
29453;DHT22;16424;50.956;5.320;2023-06-10T13:24:49;31.80;64.80
29453;DHT22;16424;50.956;5.320;2023-06-10T13:27:15;31.80;66.30
29453;DHT22;16424;50.956;5.320;2023-06-10T13:29:41;31.90;64.60
29453;DHT22;16424;50.956;5.320;2023-06-10T13:32:07;32.10;62.70
29453;DHT22;16424;50.956;5.320;2023-06-10T13:34:33;32.00;63.50
29453;DHT22;16424;50.956;5.320;2023-06-10T13:36:58;32.10;65.40
29453;DHT22;16424;50.956;5.320;2023-06-10T13:39:24;32.30;65.20
29453;DHT22;16424;50.956;5.320;2023-06-10T13:41:50;32.20;65.30
29453;DHT22;16424;50.956;5.320;2023-06-10T13:44:17;32.10;66.10
29453;DHT22;16424;50.956;5.320;2023-06-10T13:46:43;32.00;66.80
29453;DHT22;16424;50.956;5.320;2023-06-10T13:52:11;32.30;67.80
29453;DHT22;16424;50.956;5.320;2023-06-10T13:54:37;32.20;64.00
29453;DHT22;16424;50.956;5.320;2023-06-10T13:57:04;31.90;65.00
29453;DHT22;16424;50.956;5.320;2023-06-10T13:59:30;32.10;64.70
29453;DHT22;16424;50.956;5.320;2023-06-10T14:01:56;32.10;65.50
29453;DHT22;16424;50.956;5.320;2023-06-10T14:04:22;32.20;65.60
29453;DHT22;16424;50.956;5.320;2023-06-10T14:06:47;32.10;64.50
29453;DHT22;16424;50.956;5.320;2023-06-10T14:09:16;31.90;63.60
29453;DHT22;16424;50.956;5.320;2023-06-10T14:11:42;32.10;63.90
29453;DHT22;16424;50.956;5.320;2023-06-10T14:14:09;32.20;63.50
29453;DHT22;16424;50.956;5.320;2023-06-10T14:16:35;32.30;64.50
29453;DHT22;16424;50.956;5.320;2023-06-10T14:19:02;32.10;65.80
29453;DHT22;16424;50.956;5.320;2023-06-10T14:21:28;32.10;66.00
29453;DHT22;16424;50.956;5.320;2023-06-10T14:23:55;32.30;65.60
29453;DHT22;16424;50.956;5.320;2023-06-10T14:26:21;32.50;66.20
29453;DHT22;16424;50.956;5.320;2023-06-10T14:28:47;32.60;62.90
29453;DHT22;16424;50.956;5.320;2023-06-10T14:31:13;32.60;62.30
29453;DHT22;16424;50.956;5.320;2023-06-10T14:33:39;32.50;63.40
29453;DHT22;16424;50.956;5.320;2023-06-10T14:36:07;32.50;63.90
29453;DHT22;16424;50.956;5.320;2023-06-10T14:38:33;32.70;63.70
29453;DHT22;16424;50.956;5.320;2023-06-10T14:40:59;32.60;62.60
29453;DHT22;16424;50.956;5.320;2023-06-10T14:43:25;32.30;62.00
29453;DHT22;16424;50.956;5.320;2023-06-10T14:45:52;32.10;62.90
29453;DHT22;16424;50.956;5.320;2023-06-10T14:48:18;32.10;62.80
29453;DHT22;16424;50.956;5.320;2023-06-10T14:53:29;32.20;62.10
29453;DHT22;16424;50.956;5.320;2023-06-10T14:55:55;32.50;62.70
29453;DHT22;16424;50.956;5.320;2023-06-10T14:58:21;32.40;61.10
29453;DHT22;16424;50.956;5.320;2023-06-10T15:00:46;32.40;62.90
29453;DHT22;16424;50.956;5.320;2023-06-10T15:03:12;32.50;62.50
29453;DHT22;16424;50.956;5.320;2023-06-10T15:05:38;32.50;63.10
29453;DHT22;16424;50.956;5.320;2023-06-10T15:08:04;32.70;64.10
29453;DHT22;16424;50.956;5.320;2023-06-10T15:10:30;32.60;64.60
29453;DHT22;16424;50.956;5.320;2023-06-10T15:12:56;32.40;66.10
29453;DHT22;16424;50.956;5.320;2023-06-10T15:15:24;32.20;66.90
29453;DHT22;16424;50.956;5.320;2023-06-10T15:17:50;32.10;67.40
29453;DHT22;16424;50.956;5.320;2023-06-10T15:20:18;31.90;68.50
29453;DHT22;16424;50.956;5.320;2023-06-10T15:22:44;31.80;69.70
29453;DHT22;16424;50.956;5.320;2023-06-10T15:25:10;31.80;68.60
29453;DHT22;16424;50.956;5.320;2023-06-10T15:27:36;31.70;68.90
29453;DHT22;16424;50.956;5.320;2023-06-10T15:30:02;31.50;69.60
29453;DHT22;16424;50.956;5.320;2023-06-10T15:32:27;31.40;69.40
29453;DHT22;16424;50.956;5.320;2023-06-10T15:34:55;31.30;69.00
29453;DHT22;16424;50.956;5.320;2023-06-10T15:37:21;31.30;69.40
29453;DHT22;16424;50.956;5.320;2023-06-10T15:39:47;31.20;69.10
29453;DHT22;16424;50.956;5.320;2023-06-10T15:42:13;31.20;68.80
29453;DHT22;16424;50.956;5.320;2023-06-10T15:44:39;31.40;68.10
29453;DHT22;16424;50.956;5.320;2023-06-10T15:47:05;31.70;68.10
29453;DHT22;16424;50.956;5.320;2023-06-10T15:49:32;32.00;68.10
29453;DHT22;16424;50.956;5.320;2023-06-10T15:51:57;31.90;68.30
29453;DHT22;16424;50.956;5.320;2023-06-10T15:54:23;31.70;67.60
29453;DHT22;16424;50.956;5.320;2023-06-10T15:56:49;31.70;68.00
29453;DHT22;16424;50.956;5.320;2023-06-10T15:59:15;31.80;67.50
29453;DHT22;16424;50.956;5.320;2023-06-10T16:01:41;31.80;68.10
29453;DHT22;16424;50.956;5.320;2023-06-10T16:04:07;31.90;67.30
29453;DHT22;16424;50.956;5.320;2023-06-10T16:06:33;31.90;68.10
29453;DHT22;16424;50.956;5.320;2023-06-10T16:08:59;32.10;68.30
29453;DHT22;16424;50.956;5.320;2023-06-10T16:11:25;32.10;67.60
29453;DHT22;16424;50.956;5.320;2023-06-10T16:13:51;31.80;68.60
29453;DHT22;16424;50.956;5.320;2023-06-10T16:16:17;31.80;68.40
29453;DHT22;16424;50.956;5.320;2023-06-10T16:18:43;31.80;69.10
29453;DHT22;16424;50.956;5.320;2023-06-10T16:21:09;31.60;68.90
29453;DHT22;16424;50.956;5.320;2023-06-10T16:23:35;31.60;68.70
29453;DHT22;16424;50.956;5.320;2023-06-10T16:26:02;31.50;68.00
29453;DHT22;16424;50.956;5.320;2023-06-10T16:28:28;31.20;68.40
29453;DHT22;16424;50.956;5.320;2023-06-10T16:30:53;31.10;68.50
29453;DHT22;16424;50.956;5.320;2023-06-10T16:33:19;31.10;68.10
29453;DHT22;16424;50.956;5.320;2023-06-10T16:35:45;31.20;68.50
29453;DHT22;16424;50.956;5.320;2023-06-10T16:38:11;31.40;68.20
29453;DHT22;16424;50.956;5.320;2023-06-10T16:40:36;31.50;67.80